Time;durP1;ratioP1;P1;durP2;ratioP2;P2;SDS_P1;SDS_P2;PMS_P1;PMS_P2;Temp;Humidity;BMP_temperature;BMP_pressure;BME280_temperature;BME280_humidity;BME280_pressure;Samples;Min_cycle;Max_cycle;Signal;HPM_P1;HPM_P2
2021/06/15 00:01:50;;;;;;;5.80;4.70;;;22.90;72.70;;;;;;5054486;28;20864;-63
2021/06/15 00:04:18;;;;;;;5.27;4.80;;;22.90;72.80;;;;;;5047850;28;20551;-63
2021/06/15 00:06:45;;;;;;;5.27;4.80;;;22.90;73.00;;;;;;5048054;28;20452;-63
2021/06/15 00:09:12;;;;;;;4.50;4.10;;;22.80;73.10;;;;;;5054046;28;20559;-63
2021/06/15 00:11:39;;;;;;;4.00;3.70;;;22.80;73.20;;;;;;5038951;28;20461;-63
2021/06/15 00:14:06;;;;;;;5.33;4.03;;;22.80;73.20;;;;;;5046618;28;20583;-62
2021/06/15 00:16:33;;;;;;;5.73;4.87;;;22.80;73.40;;;;;;5045058;28;20471;-62
2021/06/15 00:19:00;;;;;;;5.23;4.73;;;22.80;73.60;;;;;;5044948;28;20898;-62
2021/06/15 00:21:28;;;;;;;5.90;5.33;;;22.80;73.90;;;;;;5048311;28;20562;-62
2021/06/15 00:23:55;;;;;;;5.70;5.30;;;22.70;74.00;;;;;;5046577;28;20472;-62
2021/06/15 00:26:22;;;;;;;5.47;4.97;;;22.80;74.30;;;;;;5045866;28;20506;-62
2021/06/15 00:28:48;;;;;;;6.47;5.17;;;22.70;74.30;;;;;;5047156;28;20471;-62
2021/06/15 00:31:15;;;;;;;5.30;4.90;;;22.70;74.40;;;;;;5042900;28;20503;-62
2021/06/15 00:33:42;;;;;;;5.50;5.10;;;22.70;74.60;;;;;;5044248;28;20454;-62
2021/06/15 00:36:09;;;;;;;4.83;4.23;;;22.70;74.60;;;;;;5033079;28;20474;-63
2021/06/15 00:38:37;;;;;;;4.90;4.40;;;22.70;74.70;;;;;;5052357;28;20467;-63
2021/06/15 00:41:04;;;;;;;4.60;4.20;;;22.70;74.90;;;;;;5054026;28;20467;-63
2021/06/15 00:43:31;;;;;;;4.33;3.93;;;22.70;75.00;;;;;;5053702;28;20809;-63
2021/06/15 00:45:58;;;;;;;6.67;4.77;;;22.70;75.10;;;;;;5053945;28;20885;-63
2021/06/15 00:48:29;;;;;;;5.30;4.27;;;22.70;75.30;;;;;;5052754;28;20871;-64
2021/06/15 00:50:56;;;;;;;5.10;4.70;;;22.70;75.30;;;;;;5054181;28;20996;-63
2021/06/15 00:53:23;;;;;;;7.10;4.80;;;22.60;75.40;;;;;;5054360;28;20465;-63
2021/06/15 00:55:53;;;;;;;5.37;4.37;;;22.60;75.50;;;;;;5053510;28;20451;-63
2021/06/15 00:58:21;;;;;;;4.83;4.00;;;22.60;75.60;;;;;;5053829;28;20478;-63
2021/06/15 01:00:48;;;;;;;5.33;4.30;;;22.60;75.70;;;;;;5053554;28;20562;-62
2021/06/15 01:03:16;;;;;;;6.07;3.63;;;22.60;75.80;;;;;;5053565;28;20467;-62
2021/06/15 01:05:44;;;;;;;5.77;4.73;;;22.60;75.90;;;;;;5053261;28;20862;-62
2021/06/15 01:08:22;;;;;;;4.77;4.07;;;22.60;76.10;;;;;;5053332;28;20550;-63
2021/06/15 01:10:59;;;;;;;4.50;3.90;;;22.50;76.10;;;;;;5053401;28;20788;-62
2021/06/15 01:13:45;;;;;;;5.47;4.97;;;22.50;76.30;;;;;;5053682;28;20455;-63
2021/06/15 01:16:20;;;;;;;4.80;4.40;;;22.50;76.40;;;;;;5053654;28;20467;-63
2021/06/15 01:18:49;;;;;;;4.90;4.53;;;22.50;76.50;;;;;;5053586;28;20873;-63
2021/06/15 01:21:19;;;;;;;4.90;4.50;;;22.50;76.70;;;;;;5053069;28;20550;-63
2021/06/15 01:24:04;;;;;;;5.10;4.47;;;22.50;76.90;;;;;;5053549;28;20870;-63
2021/06/15 01:26:51;;;;;;;5.20;4.80;;;22.50;77.00;;;;;;5052991;28;20455;-62
2021/06/15 01:29:23;;;;;;;5.33;4.83;;;22.40;77.00;;;;;;5052860;28;20567;-63
2021/06/15 01:31:53;;;;;;;4.57;4.10;;;22.40;77.20;;;;;;5053267;28;20546;-62
2021/06/15 01:34:23;;;;;;;4.07;3.77;;;22.30;77.20;;;;;;5052890;28;20557;-63
2021/06/15 01:36:57;;;;;;;4.30;3.90;;;22.40;77.50;;;;;;5053430;28;20545;-62
2021/06/15 01:39:29;;;;;;;6.17;5.30;;;22.30;77.40;;;;;;5052714;28;20542;-62
2021/06/15 01:42:03;;;;;;;4.93;4.53;;;22.30;77.50;;;;;;5053038;28;20570;-62
2021/06/15 01:44:35;;;;;;;6.13;5.63;;;22.30;77.70;;;;;;5052866;28;20463;-62
2021/06/15 01:47:05;;;;;;;7.50;6.83;;;22.30;77.80;;;;;;5053137;28;20475;-62
2021/06/15 01:49:39;;;;;;;6.73;6.13;;;22.30;77.90;;;;;;5052277;28;20558;-62
2021/06/15 01:52:08;;;;;;;6.83;6.23;;;22.30;78.00;;;;;;5053183;28;21150;-64
2021/06/15 01:54:37;;;;;;;6.67;6.07;;;22.20;78.10;;;;;;5052981;28;20902;-63
2021/06/15 01:57:06;;;;;;;6.40;5.67;;;22.20;78.20;;;;;;5052563;28;20572;-63
2021/06/15 01:59:37;;;;;;;5.20;4.77;;;22.20;78.20;;;;;;5052438;28;20789;-63
2021/06/15 02:02:06;;;;;;;4.73;4.17;;;22.20;78.40;;;;;;5052895;28;20539;-63
2021/06/15 02:04:36;;;;;;;5.20;4.80;;;22.20;78.40;;;;;;5052408;28;20459;-63
2021/06/15 02:07:05;;;;;;;6.23;5.40;;;22.20;78.50;;;;;;5052425;28;20975;-63
2021/06/15 02:09:38;;;;;;;3.37;3.07;;;22.10;78.50;;;;;;5052425;28;20469;-63
2021/06/15 02:12:05;;;;;;;3.97;3.67;;;22.10;78.60;;;;;;5052742;28;20479;-63
2021/06/15 02:14:36;;;;;;;4.00;3.70;;;22.10;78.60;;;;;;5052282;28;20562;-63
2021/06/15 02:17:06;;;;;;;4.33;3.93;;;22.10;78.80;;;;;;5052560;28;20474;-63
2021/06/15 02:19:35;;;;;;;4.67;4.27;;;22.10;79.00;;;;;;5051646;28;20578;-62
2021/06/15 02:22:05;;;;;;;4.70;4.30;;;22.00;79.10;;;;;;5052466;28;20547;-62
2021/06/15 02:24:36;;;;;;;4.30;4.00;;;22.00;79.10;;;;;;5051986;28;20571;-62
2021/06/15 02:27:04;;;;;;;5.03;4.40;;;22.00;79.30;;;;;;5052494;28;20463;-63
2021/06/15 02:29:31;;;;;;;5.10;4.70;;;22.00;79.50;;;;;;5052162;28;20808;-62
2021/06/15 02:32:03;;;;;;;5.50;5.00;;;22.00;80.50;;;;;;5052379;28;20469;-62
2021/06/15 02:34:32;;;;;;;4.83;4.33;;;21.90;79.70;;;;;;5052099;28;20467;-62
2021/06/15 02:37:00;;;;;;;4.73;4.40;;;21.90;79.80;;;;;;5052467;28;20817;-62
2021/06/15 02:39:30;;;;;;;4.53;4.13;;;21.90;80.00;;;;;;5052006;28;20546;-61
2021/06/15 02:42:00;;;;;;;5.10;4.60;;;21.90;80.10;;;;;;5052346;28;20554;-62
2021/06/15 02:44:31;;;;;;;4.30;4.00;;;21.80;80.20;;;;;;5052005;28;20552;-62
2021/06/15 02:47:01;;;;;;;4.40;4.00;;;21.90;80.40;;;;;;5052269;28;20543;-63
2021/06/15 02:49:31;;;;;;;5.27;4.40;;;21.80;80.50;;;;;;5051713;28;20546;-63
2021/06/15 02:52:12;;;;;;;4.93;4.53;;;21.80;80.60;;;;;;5052329;28;20471;-62
2021/06/15 02:54:43;;;;;;;4.80;4.40;;;21.80;80.70;;;;;;5052050;28;20554;-63
2021/06/15 02:57:11;;;;;;;4.67;4.30;;;21.80;80.90;;;;;;5052156;28;20535;-62
2021/06/15 02:59:38;;;;;;;4.40;4.00;;;21.70;80.90;;;;;;5051784;28;20811;-62
2021/06/15 03:02:07;;;;;;;4.80;4.40;;;21.80;81.10;;;;;;5052249;28;20475;-63
2021/06/15 03:04:34;;;;;;;5.33;4.83;;;21.70;81.00;;;;;;5051789;28;20471;-63
2021/06/15 03:07:01;;;;;;;3.70;3.40;;;21.70;81.20;;;;;;5052150;28;20467;-62
2021/06/15 03:09:28;;;;;;;3.90;3.60;;;21.70;82.20;;;;;;5052026;28;20778;-63
2021/06/15 03:12:03;;;;;;;4.33;3.97;;;21.70;81.60;;;;;;5051969;28;20482;-63
2021/06/15 03:14:32;;;;;;;5.13;4.60;;;21.70;81.90;;;;;;5051732;28;20804;-63
2021/06/15 03:17:02;;;;;;;4.90;4.50;;;21.70;81.90;;;;;;5051992;28;20474;-63
2021/06/15 03:19:37;;;;;;;4.67;4.30;;;21.70;82.20;;;;;;5051528;28;20463;-63
2021/06/15 03:22:07;;;;;;;4.30;3.93;;;21.70;82.30;;;;;;5051838;28;20491;-63
2021/06/15 03:24:36;;;;;;;4.47;4.07;;;21.70;82.40;;;;;;5051705;28;20565;-62
2021/06/15 03:27:06;;;;;;;4.30;3.90;;;21.70;82.60;;;;;;5051714;28;20498;-62
2021/06/15 03:29:36;;;;;;;4.13;3.73;;;21.70;82.70;;;;;;5051756;28;20466;-62
2021/06/15 03:32:07;;;;;;;4.07;3.80;;;21.70;82.80;;;;;;5055560;28;20462;-63
2021/06/15 03:34:42;;;;;;;4.30;3.90;;;21.70;83.00;;;;;;5055297;28;20467;-63
2021/06/15 03:37:12;;;;;;;4.80;4.40;;;21.70;83.10;;;;;;5055557;28;20988;-62
2021/06/15 03:39:41;;;;;;;5.03;4.63;;;21.70;83.30;;;;;;5054893;28;20459;-62
2021/06/15 03:42:10;;;;;;;5.50;4.30;;;21.70;83.50;;;;;;5055349;28;20879;-63
2021/06/15 03:44:37;;;;;;;4.40;4.10;;;21.70;83.60;;;;;;5054964;28;20554;-62
2021/06/15 03:47:05;;;;;;;4.63;4.27;;;21.70;83.90;;;;;;5055031;28;20498;-63
2021/06/15 03:49:35;;;;;;;5.43;4.93;;;21.70;84.10;;;;;;5054887;28;20474;-63
2021/06/15 03:52:04;;;;;;;5.30;4.80;;;21.80;84.30;;;;;;5055241;28;20462;-63
2021/06/15 03:54:34;;;;;;;6.90;4.97;;;21.80;84.20;;;;;;5054478;28;20802;-62
2021/06/15 03:57:02;;;;;;;6.17;5.10;;;21.80;84.20;;;;;;5054989;28;20460;-62
2021/06/15 03:59:32;;;;;;;5.43;4.87;;;21.80;84.20;;;;;;5054726;28;20538;-62
2021/06/15 04:02:03;;;;;;;4.93;4.43;;;21.80;84.10;;;;;;5054863;28;20467;-63
2021/06/15 04:04:32;;;;;;;4.13;3.73;;;21.80;83.90;;;;;;5054530;28;20471;-62
2021/06/15 04:07:01;;;;;;;5.43;5.00;;;21.80;83.90;;;;;;5055001;28;20554;-62
2021/06/15 04:09:29;;;;;;;5.10;4.53;;;21.80;83.90;;;;;;5054583;28;20776;-62
2021/06/15 04:11:59;;;;;;;4.80;4.30;;;21.80;84.00;;;;;;5054692;28;20478;-62
2021/06/15 04:14:27;;;;;;;4.27;3.87;;;21.90;84.20;;;;;;5054545;28;20489;-62
2021/06/15 04:16:56;;;;;;;5.27;4.77;;;21.80;84.10;;;;;;5054729;28;20463;-62
2021/06/15 04:19:27;;;;;;;5.77;5.27;;;21.90;83.90;;;;;;5054421;28;20489;-63
2021/06/15 04:21:58;;;;;;;7.07;4.70;;;21.90;83.90;;;;;;5054598;28;20904;-64
2021/06/15 04:24:28;;;;;;;5.70;5.07;;;22.00;83.80;;;;;;5054361;28;20471;-63
2021/06/15 04:26:59;;;;;;;5.20;4.10;;;22.00;83.90;;;;;;5054621;28;20987;-63
2021/06/15 04:29:26;;;;;;;4.93;4.53;;;21.90;83.90;;;;;;5054386;28;20467;-63
2021/06/15 04:31:58;;;;;;;5.07;4.57;;;21.90;83.90;;;;;;5054664;28;20467;-63
2021/06/15 04:34:26;;;;;;;5.60;5.10;;;22.00;84.00;;;;;;5054048;28;20547;-63
2021/06/15 04:36:57;;;;;;;8.13;5.13;;;22.00;83.70;;;;;;5054404;28;20550;-63
2021/06/15 04:39:29;;;;;;;5.10;4.60;;;22.00;83.80;;;;;;5054079;28;20470;-63
2021/06/15 04:42:00;;;;;;;6.80;4.80;;;22.00;83.80;;;;;;5053664;28;20471;-63
2021/06/15 04:44:30;;;;;;;8.77;4.80;;;22.00;83.90;;;;;;5053809;28;20566;-63
2021/06/15 04:47:01;;;;;;;6.90;5.20;;;22.10;84.10;;;;;;5054058;28;20470;-64
2021/06/15 04:49:31;;;;;;;5.40;5.00;;;22.10;84.10;;;;;;5053784;28;20468;-64
2021/06/15 04:52:00;;;;;;;4.80;4.40;;;22.10;84.10;;;;;;5053567;28;20885;-64
2021/06/15 04:54:34;;;;;;;5.67;4.77;;;22.10;84.10;;;;;;5053499;28;20562;-63
2021/06/15 04:57:03;;;;;;;6.83;5.10;;;22.20;84.20;;;;;;5054008;28;21018;-61
2021/06/15 04:59:31;;;;;;;6.90;4.97;;;22.20;84.20;;;;;;5053781;28;20546;-63
2021/06/15 05:01:59;;;;;;;5.47;4.97;;;22.30;84.20;;;;;;5053892;28;20479;-63
2021/06/15 05:04:27;;;;;;;5.40;4.90;;;22.30;84.20;;;;;;5053444;28;20468;-63
2021/06/15 05:06:55;;;;;;;6.97;6.27;;;22.40;84.20;;;;;;5054138;28;20471;-63
2021/06/15 05:09:25;;;;;;;7.13;5.43;;;22.40;84.10;;;;;;5053772;28;20961;-63
2021/06/15 05:11:54;;;;;;;6.17;5.73;;;22.40;84.10;;;;;;5053541;28;20646;-63
2021/06/15 05:14:25;;;;;;;6.50;5.80;;;22.50;85.00;;;;;;5053865;28;20463;-63
2021/06/15 05:16:52;;;;;;;6.40;5.80;;;22.50;84.10;;;;;;5053240;28;20464;-63
2021/06/15 05:19:19;;;;;;;8.73;5.80;;;22.50;84.10;;;;;;5053579;28;20471;-64
2021/06/15 05:21:53;;;;;;;9.70;6.50;;;22.50;84.10;;;;;;5053015;28;20795;-63
2021/06/15 05:24:30;;;;;;;7.97;6.40;;;22.60;84.30;;;;;;5053574;28;20494;-63
2021/06/15 05:26:58;;;;;;;6.50;4.60;;;22.60;84.20;;;;;;5053117;28;20454;-62
2021/06/15 05:29:25;;;;;;;6.40;5.80;;;22.70;84.40;;;;;;5053701;28;20870;-62
2021/06/15 05:31:52;;;;;;;10.87;6.27;;;22.70;84.50;;;;;;5052850;28;20985;-63
2021/06/15 05:34:19;;;;;;;6.47;5.80;;;22.80;84.50;;;;;;5053453;28;20467;-62
2021/06/15 05:36:46;;;;;;;8.20;7.40;;;22.80;84.40;;;;;;5052949;28;20550;-63
2021/06/15 05:39:13;;;;;;;8.53;5.70;;;22.90;84.50;;;;;;5053025;28;20467;-62
2021/06/15 05:41:39;;;;;;;5.57;5.17;;;22.90;84.40;;;;;;5052659;28;20813;-63
2021/06/15 05:44:11;;;;;;;7.30;6.60;;;23.00;84.50;;;;;;5053367;28;20854;-64
2021/06/15 05:46:38;;;;;;;7.63;5.87;;;23.10;84.30;;;;;;5052720;28;20463;-63
2021/06/15 05:49:05;;;;;;;8.00;6.00;;;23.20;84.10;;;;;;5052881;28;20547;-64
2021/06/15 05:51:33;;;;;;;7.87;7.17;;;23.20;83.60;;;;;;5053083;28;20550;-63
2021/06/15 05:54:02;;;;;;;17.93;12.60;;;23.30;83.10;;;;;;5051319;28;20542;-63
2021/06/15 05:56:30;;;;;;;6.90;6.30;;;23.30;82.80;;;;;;5052587;28;20482;-63
2021/06/15 05:58:57;;;;;;;6.37;5.53;;;23.30;82.60;;;;;;5052492;28;20474;-63
2021/06/15 06:01:25;;;;;;;9.13;5.43;;;23.40;82.70;;;;;;5052927;28;20464;-63
2021/06/15 06:03:58;;;;;;;7.50;6.53;;;23.40;82.70;;;;;;5052182;28;20498;-63
2021/06/15 06:09:09;;;;;;;6.17;5.50;;;23.30;82.60;;;;;;5052533;28;20545;-64
2021/06/15 06:11:36;;;;;;;5.53;5.00;;;23.40;82.70;;;;;;5052470;28;20864;-63
2021/06/15 06:14:03;;;;;;;8.10;7.00;;;23.50;82.70;;;;;;5052105;28;20465;-63
2021/06/15 06:16:33;;;;;;;7.13;5.80;;;23.60;82.70;;;;;;5052532;28;20534;-64
2021/06/15 06:19:00;;;;;;;10.00;5.70;;;23.70;82.60;;;;;;5052078;28;20550;-63
2021/06/15 06:21:32;;;;;;;7.00;5.90;;;23.70;82.50;;;;;;5052259;28;20546;-63
2021/06/15 06:24:01;;;;;;;7.40;6.30;;;23.70;82.30;;;;;;5052110;28;21115;-64
2021/06/15 06:26:28;;;;;;;9.70;6.13;;;23.80;82.40;;;;;;5052259;28;20477;-64
2021/06/15 06:28:55;;;;;;;6.87;6.20;;;23.80;82.00;;;;;;5051939;28;20550;-63
2021/06/15 06:31:22;;;;;;;5.47;4.97;;;23.90;82.30;;;;;;5052484;28;20465;-64
2021/06/15 06:33:50;;;;;;;8.60;6.37;;;23.90;82.10;;;;;;5051956;28;20471;-64
2021/06/15 06:36:18;;;;;;;9.27;6.00;;;24.00;82.10;;;;;;5052367;28;20491;-63
2021/06/15 06:38:48;;;;;;;10.70;5.97;;;24.10;82.10;;;;;;5052136;28;20475;-63
2021/06/15 06:41:16;;;;;;;9.47;6.40;;;24.10;82.30;;;;;;5052083;28;20463;-63
2021/06/15 06:43:43;;;;;;;8.93;6.00;;;24.20;82.20;;;;;;5052231;28;20973;-63
2021/06/15 06:46:09;;;;;;;9.03;6.57;;;24.20;82.10;;;;;;5051953;28;20542;-62
2021/06/15 06:48:36;;;;;;;7.50;6.70;;;24.30;82.10;;;;;;5052007;28;20573;-62
2021/06/15 06:51:05;;;;;;;9.63;6.80;;;24.30;82.10;;;;;;5051688;28;20471;-62
2021/06/15 06:53:36;;;;;;;8.53;7.43;;;24.30;82.10;;;;;;5052293;28;20517;-62
2021/06/15 06:56:05;;;;;;;9.80;7.17;;;24.30;82.10;;;;;;5051575;28;20482;-62
2021/06/15 06:58:32;;;;;;;10.17;5.80;;;24.20;82.30;;;;;;5051910;28;20558;-63
2021/06/15 07:00:58;;;;;;;11.80;6.47;;;24.30;82.50;;;;;;5051898;28;20558;-63
2021/06/15 07:03:25;;;;;;;9.90;6.27;;;24.30;82.50;;;;;;5052231;28;20550;-63
2021/06/15 07:05:52;;;;;;;8.20;5.83;;;24.30;83.00;;;;;;5053976;28;20467;-63
2021/06/15 07:08:20;;;;;;;9.10;6.00;;;24.40;83.20;;;;;;5056267;28;20467;-63
2021/06/15 07:10:47;;;;;;;6.50;5.60;;;24.50;82.90;;;;;;5056017;28;20481;-63
2021/06/15 07:13:14;;;;;;;6.97;6.27;;;24.50;82.60;;;;;;5055631;28;20544;-62
2021/06/15 07:15:41;;;;;;;5.97;5.47;;;24.60;82.40;;;;;;5055903;28;20477;-63
2021/06/15 07:18:08;;;;;;;6.73;6.00;;;24.60;82.30;;;;;;5055531;28;20554;-63
2021/06/15 07:20:35;;;;;;;7.10;6.13;;;24.60;82.20;;;;;;5055793;28;20961;-63
2021/06/15 07:23:02;;;;;;;7.00;6.30;;;24.70;82.30;;;;;;5055533;28;20473;-63
2021/06/15 07:25:30;;;;;;;12.17;5.80;;;24.70;82.30;;;;;;5055602;28;20787;-63
2021/06/15 07:27:59;;;;;;;5.77;4.90;;;24.80;82.40;;;;;;5055319;28;20566;-63
2021/06/15 07:30:26;;;;;;;7.10;5.83;;;24.70;82.30;;;;;;5055866;28;20473;-63
2021/06/15 07:32:56;;;;;;;6.77;6.03;;;24.80;82.30;;;;;;5055635;28;20485;-63
2021/06/15 07:35:23;;;;;;;9.17;6.13;;;24.80;82.30;;;;;;5055261;28;20461;-63
2021/06/15 07:37:50;;;;;;;7.80;6.10;;;24.80;82.00;;;;;;5055258;28;20475;-63
2021/06/15 07:40:22;;;;;;;8.53;7.40;;;24.90;82.20;;;;;;5054882;28;20466;-63
2021/06/15 07:42:51;;;;;;;11.53;8.60;;;24.90;82.30;;;;;;5055253;28;21035;-63
2021/06/15 07:45:18;;;;;;;7.60;6.63;;;24.90;82.30;;;;;;5055008;28;20475;-63
2021/06/15 07:47:44;;;;;;;9.70;6.60;;;25.00;82.60;;;;;;5055163;28;20494;-63
2021/06/15 07:50:13;;;;;;;8.57;7.73;;;25.00;82.50;;;;;;5054966;28;20532;-63
2021/06/15 07:52:40;;;;;;;7.10;6.40;;;25.10;81.90;;;;;;5055222;28;20477;-63
2021/06/15 07:55:08;;;;;;;8.00;6.50;;;25.10;81.90;;;;;;5054286;28;20485;-63
2021/06/15 07:57:35;;;;;;;7.50;6.80;;;25.20;81.50;;;;;;5054755;28;20506;-63
2021/06/15 08:00:04;;;;;;;7.77;6.97;;;25.30;81.10;;;;;;5054826;28;20548;-62
2021/06/15 08:02:31;;;;;;;6.93;5.93;;;25.40;81.00;;;;;;5055211;28;20467;-63
2021/06/15 08:04:57;;;;;;;8.13;6.27;;;25.50;80.60;;;;;;5055073;28;20557;-63
2021/06/15 08:07:24;;;;;;;8.93;8.07;;;25.70;80.20;;;;;;5054463;28;20469;-63
2021/06/15 08:09:51;;;;;;;6.60;5.90;;;25.70;80.00;;;;;;5055007;28;20872;-63
2021/06/15 08:12:20;;;;;;;7.30;6.60;;;25.80;80.50;;;;;;5054456;28;21044;-63
2021/06/15 08:14:47;;;;;;;8.73;7.10;;;25.80;79.30;;;;;;5055036;28;20783;-62
2021/06/15 08:17:16;;;;;;;7.40;6.70;;;25.80;79.40;;;;;;5053305;28;20466;-63
2021/06/15 08:19:43;;;;;;;7.10;5.97;;;25.80;79.60;;;;;;5054721;28;20467;-63
2021/06/15 08:22:10;;;;;;;9.43;7.60;;;25.80;79.90;;;;;;5054097;28;20546;-63
2021/06/15 08:24:37;;;;;;;7.53;6.90;;;25.80;80.00;;;;;;5054739;28;20972;-63
2021/06/15 08:27:04;;;;;;;7.50;6.80;;;25.70;80.00;;;;;;5054177;28;20984;-63
2021/06/15 08:29:32;;;;;;;7.87;6.30;;;25.60;79.90;;;;;;5054546;28;20481;-63
2021/06/15 08:31:58;;;;;;;5.83;5.33;;;25.60;80.00;;;;;;5054285;28;20467;-63
2021/06/15 08:34:27;;;;;;;8.50;6.27;;;25.50;80.20;;;;;;5054157;28;20463;-63
2021/06/15 08:36:54;;;;;;;7.70;5.73;;;25.50;80.40;;;;;;5054512;28;20468;-64
2021/06/15 08:39:21;;;;;;;11.47;5.70;;;25.50;81.00;;;;;;5053783;28;20475;-63
2021/06/15 08:41:48;;;;;;;6.33;5.70;;;25.40;81.40;;;;;;5054324;28;20566;-63
2021/06/15 08:44:15;;;;;;;6.60;5.60;;;25.50;81.80;;;;;;5053975;28;20508;-63
2021/06/15 08:46:42;;;;;;;6.53;5.87;;;25.40;82.00;;;;;;5054193;28;20459;-64
2021/06/15 08:49:09;;;;;;;12.60;5.30;;;25.50;82.20;;;;;;5053778;28;20456;-63
2021/06/15 08:51:37;;;;;;;5.63;5.07;;;25.50;82.20;;;;;;5054128;28;20531;-62
2021/06/15 08:54:08;;;;;;;4.93;4.53;;;25.40;82.40;;;;;;5053839;28;20468;-62
2021/06/15 08:56:36;;;;;;;5.63;4.07;;;25.40;82.60;;;;;;5054172;28;20464;-62
2021/06/15 08:59:18;;;;;;;6.13;4.90;;;25.40;82.60;;;;;;5053797;28;20467;-62
2021/06/15 09:01:45;;;;;;;5.03;4.63;;;25.50;82.40;;;;;;5054073;28;20463;-62
2021/06/15 09:04:12;;;;;;;4.90;4.07;;;25.50;82.10;;;;;;5054067;28;20465;-62
2021/06/15 09:06:40;;;;;;;5.37;4.83;;;25.60;82.00;;;;;;5053855;28;20471;-62
2021/06/15 09:09:07;;;;;;;5.03;4.63;;;25.60;81.50;;;;;;5053436;28;20478;-63
2021/06/15 09:11:52;;;;;;;5.03;4.63;;;25.60;81.60;;;;;;5053791;28;20467;-63
2021/06/15 09:14:37;;;;;;;6.57;5.93;;;25.70;81.70;;;;;;5053775;28;20535;-63
2021/06/15 09:17:04;;;;;;;6.83;5.60;;;25.70;81.80;;;;;;5053356;28;20556;-62
2021/06/15 09:19:37;;;;;;;5.47;5.00;;;25.80;81.70;;;;;;5053723;28;20805;-62
2021/06/15 09:22:05;;;;;;;5.93;5.33;;;25.80;81.70;;;;;;5053006;28;20566;-62
2021/06/15 09:24:32;;;;;;;5.10;4.63;;;25.90;81.90;;;;;;5053490;28;21008;-62
2021/06/15 09:27:07;;;;;;;7.77;5.77;;;25.90;81.90;;;;;;5052893;28;20550;-62
2021/06/15 09:29:39;;;;;;;6.43;5.13;;;25.90;81.80;;;;;;5053194;28;20531;-64
2021/06/15 09:32:06;;;;;;;6.30;5.70;;;25.90;81.40;;;;;;5053005;28;20463;-64
2021/06/15 09:34:33;;;;;;;5.73;5.07;;;25.90;80.90;;;;;;5053246;28;20487;-63
2021/06/15 09:37:06;;;;;;;6.37;5.83;;;25.90;81.00;;;;;;5053176;28;20546;-63
2021/06/15 09:39:34;;;;;;;6.53;5.80;;;25.90;81.40;;;;;;5052563;28;20463;-63
2021/06/15 09:42:01;;;;;;;8.20;6.13;;;26.00;81.60;;;;;;5053051;28;20558;-63
2021/06/15 09:44:30;;;;;;;6.17;5.33;;;26.00;81.70;;;;;;5052539;28;20546;-64
2021/06/15 09:46:59;;;;;;;6.50;6.00;;;26.00;81.90;;;;;;5052792;28;20463;-64
2021/06/15 09:49:29;;;;;;;7.30;6.70;;;26.00;82.10;;;;;;5052838;28;20551;-64
2021/06/15 09:52:16;;;;;;;6.07;5.43;;;26.00;82.40;;;;;;5052552;28;21137;-63
2021/06/15 09:54:44;;;;;;;5.50;5.10;;;26.10;81.80;;;;;;5052678;28;20543;-63
2021/06/15 09:57:13;;;;;;;6.33;5.73;;;26.10;81.80;;;;;;5052933;28;20468;-63
2021/06/15 09:59:59;;;;;;;7.10;6.40;;;26.10;82.60;;;;;;5052252;28;20995;-64
2021/06/15 10:02:26;;;;;;;7.70;5.23;;;26.10;83.10;;;;;;5053040;28;20489;-63
2021/06/15 10:04:53;;;;;;;6.23;5.57;;;26.10;83.30;;;;;;5052388;28;20469;-64
2021/06/15 10:07:27;;;;;;;6.53;5.93;;;26.00;83.60;;;;;;5052436;28;20544;-64
2021/06/15 10:09:54;;;;;;;6.97;6.27;;;26.00;83.80;;;;;;5052447;28;20513;-64
2021/06/15 10:12:22;;;;;;;6.30;5.80;;;26.00;83.90;;;;;;5052626;28;20467;-64
2021/06/15 10:14:49;;;;;;;6.83;6.10;;;25.90;84.10;;;;;;5052165;28;20547;-63
2021/06/15 10:17:17;;;;;;;6.90;6.30;;;25.90;85.00;;;;;;5052609;28;20550;-63
2021/06/15 10:19:44;;;;;;;7.20;6.60;;;25.90;84.50;;;;;;5052060;28;20546;-62
2021/06/15 10:22:11;;;;;;;8.87;7.97;;;25.90;84.70;;;;;;5052387;28;20477;-62
2021/06/15 10:24:40;;;;;;;8.83;8.03;;;25.90;84.70;;;;;;5052386;28;20473;-63
2021/06/15 10:27:08;;;;;;;8.30;7.60;;;25.80;84.50;;;;;;5052278;28;20460;-63
2021/06/15 10:29:37;;;;;;;7.07;6.00;;;25.90;84.70;;;;;;5051986;28;20495;-63
2021/06/15 10:32:12;;;;;;;7.43;6.80;;;25.90;84.30;;;;;;5052495;28;20542;-62
2021/06/15 10:34:51;;;;;;;7.97;7.17;;;25.80;84.50;;;;;;5052064;28;20471;-63
2021/06/15 10:37:54;;;;;;;6.00;5.60;;;25.80;84.70;;;;;;5052347;28;20482;-63
2021/06/15 10:40:37;;;;;;;7.77;5.63;;;25.80;84.80;;;;;;5034021;28;20554;-62
2021/06/15 10:43:20;;;;;;;6.97;6.10;;;25.90;84.70;;;;;;5036696;28;20468;-62
2021/06/15 10:45:51;;;;;;;6.00;5.50;;;25.90;84.50;;;;;;5036453;28;21102;-63
2021/06/15 10:48:30;;;;;;;6.60;6.03;;;25.80;84.60;;;;;;5036440;28;21033;-62
2021/06/15 10:50:59;;;;;;;5.87;5.40;;;25.90;84.70;;;;;;5036021;28;20463;-62
2021/06/15 10:53:39;;;;;;;7.30;6.23;;;25.80;84.90;;;;;;5036384;28;20849;-62
2021/06/15 10:56:09;;;;;;;7.00;6.50;;;25.90;85.00;;;;;;5036169;28;20994;-62
2021/06/15 10:59:13;;;;;;;6.57;6.00;;;25.90;84.80;;;;;;5035972;28;20555;-62
2021/06/15 11:01:42;;;;;;;6.83;6.23;;;25.90;85.10;;;;;;5035961;28;20463;-63
2021/06/15 11:04:11;;;;;;;7.83;6.70;;;25.90;84.80;;;;;;5035958;28;20483;-62
2021/06/15 11:06:41;;;;;;;8.50;6.50;;;25.80;84.60;;;;;;5040429;28;20482;-62
2021/06/15 11:09:25;;;;;;;7.67;6.20;;;25.90;85.00;;;;;;5055898;28;20550;-62
2021/06/15 11:12:22;;;;;;;11.90;6.43;;;25.90;85.00;;;;;;5055888;28;21634;-63
2021/06/15 11:15:20;;;;;;;8.53;6.70;;;25.90;85.00;;;;;;5055385;28;20463;-63
2021/06/15 11:17:52;;;;;;;6.67;6.07;;;25.80;84.30;;;;;;5055406;28;20581;-63
2021/06/15 11:20:27;;;;;;;6.40;5.80;;;25.80;84.10;;;;;;5055760;28;21024;-63
2021/06/15 11:23:15;;;;;;;6.93;5.77;;;25.80;84.10;;;;;;5051327;28;20447;-63
2021/06/15 11:25:50;;;;;;;18.23;16.53;;;25.80;84.40;;;;;;5053381;28;20542;-64
2021/06/15 11:28:43;;;;;;;15.13;13.90;;;25.80;84.70;;;;;;5033797;28;20467;-64
2021/06/15 11:31:30;;;;;;;10.23;9.27;;;25.70;85.10;;;;;;5034424;28;20543;-64
2021/06/15 11:34:23;;;;;;;45.33;41.13;;;25.60;85.40;;;;;;5033757;28;20815;-62
2021/06/15 11:36:58;;;;;;;32.53;29.30;;;25.60;85.90;;;;;;5038018;28;20474;-62
2021/06/15 11:39:32;;;;;;;11.10;10.00;;;25.60;86.10;;;;;;5046240;28;21189;-62
2021/06/15 11:42:22;;;;;;;9.93;7.30;;;25.60;86.10;;;;;;5053560;28;20495;-62
2021/06/15 11:45:03;;;;;;;7.20;6.53;;;25.60;86.30;;;;;;5053764;28;20464;-62
2021/06/15 11:47:34;;;;;;;10.00;8.00;;;25.50;86.30;;;;;;5054515;28;20545;-62
2021/06/15 11:50:11;;;;;;;9.30;8.37;;;25.50;86.50;;;;;;5054069;28;20817;-62
2021/06/15 11:52:39;;;;;;;8.20;7.50;;;25.50;86.70;;;;;;5054451;28;20471;-62
2021/06/15 11:55:12;;;;;;;12.47;8.33;;;25.50;87.10;;;;;;5054580;28;20542;-62
2021/06/15 11:57:40;;;;;;;9.27;8.40;;;25.50;87.30;;;;;;5055213;28;20559;-62
2021/06/15 12:00:15;;;;;;;11.87;7.43;;;25.50;87.30;;;;;;5054835;28;21621;-62
2021/06/15 12:02:43;;;;;;;8.33;7.07;;;25.50;87.20;;;;;;5055359;28;20455;-63
2021/06/15 12:05:13;;;;;;;8.30;6.60;;;25.50;86.70;;;;;;5054986;28;20542;-63
2021/06/15 12:07:41;;;;;;;7.00;6.40;;;25.60;86.10;;;;;;5054805;28;20483;-63
2021/06/15 12:10:13;;;;;;;7.50;6.80;;;25.60;85.80;;;;;;5054635;28;20550;-62
2021/06/15 12:13:01;;;;;;;9.30;7.70;;;25.80;85.40;;;;;;5054867;28;20467;-62
2021/06/15 12:15:35;;;;;;;8.03;7.33;;;25.80;84.90;;;;;;5054675;28;20844;-63
2021/06/15 12:18:03;;;;;;;8.03;7.30;;;25.80;84.80;;;;;;5054871;28;20545;-62
2021/06/15 12:20:33;;;;;;;8.00;6.53;;;25.90;84.40;;;;;;5054449;28;20471;-62
2021/06/15 12:23:00;;;;;;;8.50;7.73;;;25.90;84.40;;;;;;5051176;28;20478;-62
2021/06/15 12:25:29;;;;;;;7.40;6.70;;;26.00;84.40;;;;;;5054013;28;20570;-62
2021/06/15 12:28:15;;;;;;;8.63;7.10;;;26.00;84.20;;;;;;5054737;28;20586;-62
2021/06/15 12:30:44;;;;;;;8.70;6.40;;;26.10;83.60;;;;;;5054301;28;20546;-62
2021/06/15 12:33:12;;;;;;;7.37;6.07;;;26.10;83.60;;;;;;5054599;28;20472;-62
2021/06/15 12:35:39;;;;;;;10.03;6.97;;;26.00;83.20;;;;;;5054001;28;20531;-62
2021/06/15 12:38:11;;;;;;;8.20;7.40;;;26.10;82.90;;;;;;5054209;28;20463;-62
2021/06/15 12:40:39;;;;;;;6.77;6.13;;;26.00;82.60;;;;;;5054018;28;20470;-62
2021/06/15 12:43:06;;;;;;;6.83;6.30;;;26.10;81.70;;;;;;5054300;28;20566;-62
2021/06/15 12:45:34;;;;;;;7.47;6.87;;;26.10;81.70;;;;;;5053793;28;20538;-63
2021/06/15 12:48:03;;;;;;;8.23;5.67;;;26.00;81.30;;;;;;5054218;28;20534;-63
2021/06/15 12:50:30;;;;;;;9.23;6.20;;;26.10;81.50;;;;;;5053631;28;20494;-62
2021/06/15 12:53:07;;;;;;;6.27;5.73;;;26.10;81.50;;;;;;5054135;28;20477;-63
2021/06/15 12:55:42;;;;;;;5.77;5.17;;;26.20;81.60;;;;;;5053657;28;20482;-63
2021/06/15 12:58:11;;;;;;;8.13;6.10;;;26.10;81.40;;;;;;5053886;28;20817;-63
2021/06/15 13:00:42;;;;;;;10.50;5.83;;;26.10;81.40;;;;;;5053482;28;20467;-63
2021/06/15 13:03:13;;;;;;;6.13;5.60;;;26.10;81.60;;;;;;5053373;28;20543;-63
2021/06/15 13:05:40;;;;;;;6.53;5.93;;;26.10;81.80;;;;;;5053583;28;20903;-63